createdAt,value
2023-05-04T00:04:29.105Z,11.416156
2023-05-04T00:09:30.412Z,11.385706
2023-05-04T00:14:32.052Z,11.65772
2023-05-04T00:19:33.650Z,11.433362
2023-05-04T00:24:35.297Z,11.52649
2023-05-04T00:29:36.607Z,12.285908
2023-05-04T00:34:37.962Z,12.054818
2023-05-04T00:39:39.678Z,12.260912
2023-05-04T00:44:41.392Z,11.448708
2023-05-04T00:49:42.808Z,11.310232
2023-05-04T00:54:44.297Z,11.671126
2023-05-04T00:59:45.554Z,11.531672
2023-05-04T01:04:46.893Z,12.682992
2023-05-04T01:09:48.396Z,11.851628
2023-05-04T01:14:49.646Z,12.837564
2023-05-04T01:19:51.017Z,13.149486
2023-05-04T01:24:52.502Z,12.520144
2023-05-04T01:29:53.857Z,12.753608
2023-05-04T01:34:55.129Z,12.612552
2023-05-04T01:39:56.560Z,11.976426
2023-05-04T01:44:58.146Z,12.08041
2023-05-04T01:49:59.487Z,11.984636
2023-05-04T01:55:00.724Z,12.133982
2023-05-04T02:00:02.984Z,12.162058
2023-05-04T02:05:04.733Z,12.00362
2023-05-04T02:10:06.533Z,12.195154
2023-05-04T02:15:08.391Z,12.135408
2023-05-04T02:20:10.006Z,11.543762
2023-05-04T02:25:11.979Z,11.457256
2023-05-04T02:30:13.540Z,12.025956
2023-05-04T02:35:14.947Z,12.366388
2023-05-04T02:40:16.374Z,12.22076
2023-05-04T02:45:17.887Z,11.573602
2023-05-04T02:50:19.275Z,12.06144
2023-05-04T02:55:20.727Z,11.677924
2023-05-04T03:00:22.169Z,12.407436
2023-05-04T03:05:23.804Z,11.065192
2023-05-04T03:10:25.329Z,11.990376
2023-05-04T03:15:26.831Z,12.164094
2023-05-04T03:20:28.418Z,11.765746
2023-05-04T03:25:29.992Z,11.642006
2023-05-04T03:30:31.288Z,11.466076
2023-05-04T03:35:32.748Z,11.565216
2023-05-04T03:40:34.345Z,11.262018
2023-05-04T03:45:35.825Z,11.465642
2023-05-04T03:50:37.311Z,10.967382
2023-05-04T03:55:38.840Z,12.0189
2023-05-04T04:00:40.573Z,10.956798
2023-05-04T04:05:42.140Z,11.222748
2023-05-04T04:10:43.786Z,10.910282
2023-05-04T04:15:45.099Z,10.829964
2023-05-04T04:20:46.458Z,10.677714
2023-05-04T04:25:47.791Z,10.621944
2023-05-04T04:30:49.071Z,11.49532
2023-05-04T04:35:50.366Z,11.27879
2023-05-04T04:40:52.045Z,10.85424
2023-05-04T04:45:53.331Z,11.202992
2023-05-04T04:50:54.875Z,11.152132
2023-05-04T04:55:56.524Z,11.105358
2023-05-04T05:00:58.152Z,11.344114
2023-05-04T05:06:00.052Z,11.376762
2023-05-04T05:11:01.678Z,11.350016
2023-05-04T05:16:03.228Z,11.677042
2023-05-04T05:21:04.808Z,11.660704
2023-05-04T05:26:06.543Z,12.17442
2023-05-04T05:31:08.213Z,12.354922
2023-05-04T05:36:09.878Z,12.486166
2023-05-04T05:41:11.668Z,12.827752
2023-05-04T05:46:13.433Z,12.917948
2023-05-04T05:51:15.425Z,13.38162
2023-05-04T05:56:17.365Z,13.427798
2023-05-04T06:01:19.036Z,13.688794
2023-05-04T06:06:20.771Z,13.919884
2023-05-04T06:11:22.481Z,13.783238
2023-05-04T06:16:24.360Z,14.030828
2023-05-04T06:21:26.044Z,15.087746
2023-05-04T06:26:27.824Z,15.593428
2023-05-04T06:31:29.527Z,15.72584
2023-05-04T06:36:31.183Z,16.296942
2023-05-04T06:41:32.862Z,16.600506
2023-05-04T06:46:34.595Z,16.576312
2023-05-04T06:51:36.507Z,16.884992
2023-05-04T06:56:38.313Z,17.361392
2023-05-04T07:01:40.034Z,18.49692
2023-05-04T07:06:41.729Z,18.361876
2023-05-04T07:11:43.523Z,18.432492
2023-05-04T07:16:45.026Z,18.239872
2023-05-04T07:21:46.464Z,18.85072
2023-05-04T07:26:47.904Z,19.238226
2023-05-04T07:31:49.218Z,18.936602
2023-05-04T07:36:50.569Z,19.459356
2023-05-04T07:41:51.926Z,19.911046
2023-05-04T07:46:53.295Z,20.465078
2023-05-04T07:51:54.756Z,20.010796
2023-05-04T07:56:56.203Z,20.326818
2023-05-04T08:01:57.927Z,20.80695
2023-05-04T08:06:59.313Z,20.476626
2023-05-04T08:12:00.784Z,21.481114
2023-05-04T08:17:02.248Z,21.016356
2023-05-04T08:22:03.557Z,21.450908
2023-05-04T08:27:08.813Z,21.84216
2023-05-04T08:32:11.623Z,21.337928
2023-05-04T08:37:13.380Z,21.677968
2023-05-04T08:42:14.998Z,22.931038
2023-05-04T08:47:16.543Z,21.797584
2023-05-04T08:52:18.208Z,21.785914
2023-05-04T08:57:19.910Z,22.634176
2023-05-04T09:02:21.445Z,23.35867
2023-05-04T09:07:23.030Z,23.031412
2023-05-04T09:12:24.609Z,23.330418
2023-05-04T09:17:26.351Z,23.79975
2023-05-04T09:22:28.886Z,23.105516
2023-05-04T09:27:30.228Z,22.31582
2023-05-04T09:32:31.844Z,23.571672
2023-05-04T09:37:33.475Z,23.799804
2023-05-04T09:42:35.223Z,23.979208
2023-05-04T09:47:36.860Z,24.209606
2023-05-04T09:52:38.607Z,24.263654
2023-05-04T09:57:40.192Z,24.97409
2023-05-04T10:02:42.159Z,24.967672
2023-05-04T10:07:43.984Z,24.829072
2023-05-04T10:12:45.577Z,24.100832
2023-05-04T10:17:47.008Z,24.569784
2023-05-04T10:22:48.590Z,24.597778
2023-05-04T10:27:50.030Z,25.230298
2023-05-04T10:32:51.374Z,23.591918
2023-05-04T10:37:52.668Z,25.768346
2023-05-04T10:42:54.137Z,24.482138
2023-05-04T10:47:55.512Z,25.30219
2023-05-04T10:52:58.343Z,25.267804
2023-05-04T10:58:01.544Z,24.05802
2023-05-04T11:03:02.931Z,24.197882
2023-05-04T11:08:04.266Z,24.842316
2023-05-04T11:13:06.838Z,25.310386
2023-05-04T11:18:09.081Z,26.01568
2023-05-04T11:23:10.529Z,24.364246
2023-05-04T11:28:14.334Z,26.068452
2023-05-04T11:33:16.081Z,25.145786
2023-05-04T11:38:17.529Z,25.28478
2023-05-04T11:43:18.967Z,26.277668
2023-05-04T11:48:20.335Z,25.36134
2023-05-04T11:53:21.616Z,23.720558
2023-05-04T11:58:23.052Z,23.913192
2023-05-04T12:03:27.730Z,23.781662
2023-05-04T12:08:33.892Z,24.553202
2023-05-04T12:13:35.364Z,24.125298
2023-05-04T12:18:36.611Z,24.972964
2023-05-04T12:23:37.865Z,24.472232
2023-05-04T12:28:39.317Z,23.316048
2023-05-04T12:33:40.585Z,23.23459
2023-05-04T12:38:42.023Z,24.575266
2023-05-04T12:43:43.333Z,24.70681
2023-05-04T12:48:44.672Z,24.75296
2023-05-04T12:53:46.059Z,24.418184
2023-05-04T12:58:47.612Z,24.030596
2023-05-04T13:03:49.310Z,24.080478
2023-05-04T13:08:51.117Z,24.314906
2023-05-04T13:13:52.603Z,23.550178
2023-05-04T13:18:53.892Z,24.140306
2023-05-04T13:23:55.144Z,23.07721
2023-05-04T13:28:56.685Z,23.001288
2023-05-04T13:33:58.462Z,23.168832
2023-05-04T13:39:00.057Z,22.620878
2023-05-04T13:44:01.813Z,22.059952
2023-05-04T13:49:03.496Z,21.766822
2023-05-04T13:54:05.180Z,21.59689
2023-05-04T13:59:06.878Z,22.345904
2023-05-04T14:04:08.451Z,22.013544
2023-05-04T14:09:09.952Z,21.798846
2023-05-04T14:14:11.370Z,21.691836
2023-05-04T14:19:12.711Z,21.419074
2023-05-04T14:24:14.019Z,21.263716
2023-05-04T14:29:15.513Z,21.161496
2023-05-04T14:34:16.808Z,21.428288
2023-05-04T14:39:18.433Z,21.409114
2023-05-04T14:44:19.869Z,21.08647
2023-05-04T14:49:35.608Z,20.174662
2023-05-04T14:54:38.755Z,20.431724
2023-05-04T14:59:40.383Z,20.225602
2023-05-04T15:04:41.880Z,19.902592
2023-05-04T15:09:43.343Z,20.025044
2023-05-04T15:14:45.128Z,19.75695
2023-05-04T15:19:46.814Z,19.835246
2023-05-04T15:24:48.135Z,20.645784
2023-05-04T15:29:49.754Z,19.74874
2023-05-04T15:35:03.785Z,19.53027
2023-05-04T15:40:07.754Z,19.971634
2023-05-04T15:45:10.657Z,19.136576
2023-05-04T15:50:12.475Z,19.526986
2023-05-04T15:55:24.722Z,19.001138
2023-05-04T16:00:27.106Z,18.750088
2023-05-04T16:05:28.850Z,18.021402
2023-05-04T16:10:30.136Z,16.685682
2023-05-04T16:15:31.429Z,16.860906
2023-05-04T16:20:32.838Z,16.816058
2023-05-04T16:25:34.074Z,17.240026
2023-05-04T16:30:35.511Z,17.553564
2023-05-04T16:35:37.015Z,17.464846
2023-05-04T16:40:38.420Z,16.604564
2023-05-04T16:45:39.937Z,14.975392
2023-05-04T16:50:41.318Z,14.72373
2023-05-04T16:55:42.609Z,14.817916
2023-05-04T17:00:44.166Z,15.186166
2023-05-04T17:05:45.415Z,15.023046
2023-05-04T17:10:47.632Z,15.675606
2023-05-04T17:15:48.937Z,13.509078
2023-05-04T17:20:50.231Z,14.66097
2023-05-04T17:25:51.450Z,15.546736
2023-05-04T17:30:52.768Z,15.494222
2023-05-04T17:35:54.026Z,15.525296
2023-05-04T17:40:55.526Z,15.175486
2023-05-04T17:45:57.077Z,15.079794
2023-05-04T17:50:58.366Z,14.706862
2023-05-04T17:55:59.613Z,14.85781
2023-05-04T18:01:00.971Z,14.60448
2023-05-04T18:06:02.297Z,14.595822
2023-05-04T18:11:03.603Z,14.42927
2023-05-04T18:16:05.092Z,14.399254
2023-05-04T18:21:06.353Z,14.477198
2023-05-04T18:26:07.721Z,14.228726
2023-05-04T18:31:09.111Z,14.253612
2023-05-04T18:36:10.368Z,13.95553
2023-05-04T18:41:11.592Z,14.500144
2023-05-04T18:46:13.082Z,14.528396
2023-05-04T18:51:14.440Z,14.11679
2023-05-04T18:56:15.692Z,13.941418
2023-05-04T19:01:17.348Z,13.77724
2023-05-04T19:06:18.723Z,14.038684
2023-05-04T19:11:19.994Z,14.307456
2023-05-04T19:16:21.517Z,14.187598
2023-05-04T19:21:22.849Z,12.304106
2023-05-04T19:26:24.310Z,13.084978
2023-05-04T19:31:25.909Z,13.439102
2023-05-04T19:36:27.244Z,13.342622
2023-05-04T19:41:28.573Z,13.76515
2023-05-04T19:46:29.826Z,13.711578
2023-05-04T19:51:31.245Z,13.503434
2023-05-04T19:56:32.547Z,13.368824
2023-05-04T20:01:34.003Z,12.93791
2023-05-04T20:06:35.250Z,13.041798
2023-05-04T20:11:36.624Z,13.318956
2023-05-04T20:16:38.152Z,12.574422
2023-05-04T20:21:39.713Z,12.61106
2023-05-04T20:26:40.983Z,13.208012
2023-05-04T20:31:42.299Z,12.011558
2023-05-04T20:36:43.579Z,12.995554
2023-05-04T20:41:44.869Z,12.858474
2023-05-04T20:46:46.147Z,12.89484
2023-05-04T20:51:47.377Z,12.685638
2023-05-04T20:56:48.871Z,12.784778
2023-05-04T21:01:50.163Z,12.660318
2023-05-04T21:06:51.999Z,12.884514
2023-05-04T21:11:53.237Z,12.281388
2023-05-04T21:16:54.599Z,12.373892
2023-05-04T21:21:55.851Z,12.69739
2023-05-04T21:26:57.129Z,12.808158
2023-05-04T21:31:58.436Z,13.296444
2023-05-04T21:36:59.761Z,13.258152
2023-05-04T21:42:01.125Z,12.993966
2023-05-04T21:47:02.459Z,13.38428
2023-05-04T21:52:03.801Z,13.623212
2023-05-04T21:57:05.095Z,13.779166
2023-05-04T22:02:06.337Z,13.775572
2023-05-04T22:07:07.621Z,12.673562
2023-05-04T22:12:08.927Z,12.449124
2023-05-04T22:17:10.442Z,12.040016
2023-05-04T22:22:11.702Z,12.040082
2023-05-04T22:27:13.068Z,12.73871
2023-05-04T22:32:14.718Z,12.96528
2023-05-04T22:37:15.977Z,13.093974
2023-05-04T22:42:17.260Z,12.973666
2023-05-04T22:47:18.526Z,12.82626
2023-05-04T22:52:19.924Z,12.862722
2023-05-04T22:57:21.194Z,13.353044
2023-05-04T23:02:22.834Z,12.530294
2023-05-04T23:07:24.194Z,13.16581
2023-05-04T23:12:25.413Z,13.288234
2023-05-04T23:17:27.063Z,13.379422
2023-05-04T23:22:28.392Z,12.543744
2023-05-04T23:27:29.844Z,12.332344
2023-05-04T23:32:31.235Z,12.715412
2023-05-04T23:37:32.777Z,12.839056
2023-05-04T23:42:34.359Z,11.446158
2023-05-04T23:47:35.977Z,12.850808
2023-05-04T23:52:37.310Z,12.303724
2023-05-04T23:57:38.648Z,13.004388
